Time;durP1;ratioP1;P1;durP2;ratioP2;P2;SDS_P1;SDS_P2;PMS_P1;PMS_P2;Temp;Humidity;BMP_temperature;BMP_pressure;BME280_temperature;BME280_humidity;BME280_pressure;Samples;Min_cycle;Max_cycle;Signal;HPM_P1;HPM_P2
2021/04/16 00:00:41;;;;;;;11.95;8.65;;;;;;;5.69;89.83;100743.34;1780200;78;27528;-74
2021/04/16 00:03:11;;;;;;;16.97;9.75;;;;;;;5.67;89.85;100747.14;1785158;80;25819;-74
2021/04/16 00:05:40;;;;;;;15.28;9.68;;;;;;;5.66;89.81;100752.13;1771924;78;25808;-75
2021/04/16 00:08:15;;;;;;;14.90;9.40;;;;;;;5.65;89.84;100742.47;1767650;78;25730;-74
2021/04/16 00:10:47;;;;;;;12.73;8.73;;;;;;;5.64;89.81;100736.83;1761949;78;25848;-74
2021/04/16 00:13:18;;;;;;;14.28;9.00;;;;;;;5.63;89.85;100742.63;1708924;81;27486;-75
2021/04/16 00:15:47;;;;;;;13.75;9.20;;;;;;;5.63;89.84;100738.64;1714845;82;25871;-74
2021/04/16 00:18:19;;;;;;;15.78;9.43;;;;;;;5.63;89.95;100739.97;1762144;79;25952;-74
2021/04/16 00:20:46;;;;;;;13.60;8.78;;;;;;;5.61;89.91;100743.27;1762522;80;26085;-75
2021/04/16 00:23:13;;;;;;;14.38;9.08;;;;;;;5.61;89.86;100739.77;1779788;80;25802;-74
2021/04/16 00:25:41;;;;;;;14.23;9.75;;;;;;;5.60;89.92;100740.30;1779072;78;26844;-75
2021/04/16 00:28:10;;;;;;;18.07;9.93;;;;;;;5.61;89.94;100743.27;1758694;78;26400;-74
2021/04/16 00:30:45;;;;;;;16.75;9.43;;;;;;;5.61;89.97;100737.96;1763358;79;25855;-74
2021/04/16 00:33:13;;;;;;;12.30;8.85;;;;;;;5.62;89.98;100742.30;1744931;80;25782;-74
2021/04/16 00:35:40;;;;;;;14.38;8.40;;;;;;;5.60;90.00;100744.28;1753492;78;26062;-74
2021/04/16 00:38:09;;;;;;;14.23;9.88;;;;;;;5.60;90.01;100736.80;1777128;78;27535;-74
2021/04/16 00:40:44;;;;;;;14.87;9.30;;;;;;;5.59;90.04;100743.92;1765937;79;26186;-74
2021/04/16 00:43:16;;;;;;;13.22;9.33;;;;;;;5.60;90.01;100742.11;1743097;80;25792;-74
2021/04/16 00:45:44;;;;;;;17.00;10.00;;;;;;;5.62;90.01;100738.80;1707112;81;25879;-74
2021/04/16 00:48:29;;;;;;;15.68;10.03;;;;;;;5.63;89.94;100738.64;1703597;82;25877;-74
2021/04/16 00:51:01;;;;;;;15.35;8.75;;;;;;;5.63;89.94;100732.48;1732797;81;27552;-74
2021/04/16 00:53:29;;;;;;;27.95;9.73;;;;;;;5.65;89.92;100738.48;1788020;80;26416;-74
2021/04/16 00:55:57;;;;;;;15.93;9.73;;;;;;;5.65;89.91;100731.35;1784012;78;25718;-74
2021/04/16 00:58:29;;;;;;;12.00;7.53;;;;;;;5.64;89.90;100735.02;1794870;78;26095;-74
2021/04/16 01:00:59;;;;;;;13.95;9.13;;;;;;;5.63;89.96;100725.84;1798771;78;26323;-75
2021/04/16 01:03:26;;;;;;;14.40;9.35;;;;;;;5.62;89.96;100722.86;1763154;79;27341;-74
2021/04/16 01:05:58;;;;;;;13.68;8.05;;;;;;;5.60;89.99;100717.70;1752095;79;26238;-74
2021/04/16 01:08:25;;;;;;;12.68;8.35;;;;;;;5.62;89.98;100714.89;1763331;80;26455;-74
2021/04/16 01:10:53;;;;;;;14.68;8.10;;;;;;;5.62;89.95;100715.73;1780940;79;25691;-74
2021/04/16 01:13:23;;;;;;;13.18;9.05;;;;;;;5.61;89.93;100715.37;1738958;80;25456;-74
2021/04/16 01:18:38;;;;;;;16.50;8.90;;;;;;;5.64;90.02;100707.59;1771787;79;25854;-74
2021/04/16 01:21:10;;;;;;;13.60;8.75;;;;;;;5.59;90.04;100718.68;1706887;82;27279;-75
2021/04/16 01:23:57;;;;;;;12.93;8.23;;;;;;;5.61;90.04;100713.20;1703143;82;28280;-74
2021/04/16 01:26:29;;;;;;;12.25;8.05;;;;;;;5.61;90.15;100713.20;1730436;82;25839;-74
2021/04/16 01:28:56;;;;;;;13.18;8.75;;;;;;;5.58;90.11;100706.37;1708427;82;25811;-74
2021/04/16 01:31:27;;;;;;;13.13;8.98;;;;;;;5.55;90.19;100706.69;1688370;82;25766;-74
2021/04/16 01:33:55;;;;;;;;;;;;;;;5.55;90.14;100703.19;1710095;82;25839;-74
2021/04/16 01:36:28;;;;;;;15.25;8.35;;;;;;;5.54;90.39;100701.02;1706901;82;27627;-74
2021/04/16 01:39:04;;;;;;;13.03;8.03;;;;;;;5.56;90.40;100699.56;1772221;79;25723;-74
2021/04/16 01:41:32;;;;;;;12.25;7.85;;;;;;;5.49;90.37;100700.66;1712734;82;25779;-74
2021/04/16 01:44:11;;;;;;;12.53;7.65;;;;;;;5.48;90.41;100699.81;1712681;82;28071;-74
2021/04/16 01:47:01;;;;;;;12.07;7.95;;;;;;;5.48;90.33;100698.98;1732277;82;25778;-74
2021/04/16 01:49:34;;;;;;;12.77;8.13;;;;;;;5.48;90.41;100695.83;1641726;86;25861;-74
2021/04/16 01:52:02;;;;;;;9.65;6.22;;;;;;;5.48;90.35;100688.34;1641671;85;25922;-75
2021/04/16 01:54:40;;;;;;;13.78;8.08;;;;;;;5.48;90.39;100684.36;1677461;83;26192;-74
2021/04/16 01:57:12;;;;;;;11.93;7.72;;;;;;;5.45;90.36;100686.83;1701237;83;27544;-74
2021/04/16 01:59:43;;;;;;;13.85;8.15;;;;;;;5.44;90.31;100686.98;1674136;83;26763;-74
2021/04/16 02:02:16;;;;;;;10.63;7.15;;;;;;;5.42;90.44;100685.81;1671293;83;25839;-74
2021/04/16 02:04:44;;;;;;;13.43;7.50;;;;;;;5.43;90.38;100687.47;1666975;83;26536;-75
2021/04/16 02:07:12;;;;;;;12.10;7.35;;;;;;;5.42;90.35;100685.81;1664415;86;25780;-74
2021/04/16 02:09:40;;;;;;;12.53;7.17;;;;;;;5.41;90.41;100676.16;1624707;85;28656;-74
2021/04/16 02:12:12;;;;;;;12.70;7.53;;;;;;;5.40;90.41;100686.47;1650548;85;25960;-74
2021/04/16 02:14:40;;;;;;;11.15;6.72;;;;;;;5.40;90.41;100678.98;1671665;85;25773;-74
2021/04/16 02:17:12;;;;;;;11.08;7.00;;;;;;;5.38;90.43;100677.81;1673518;85;26531;-74
2021/04/16 02:19:41;;;;;;;11.22;7.70;;;;;;;5.36;90.48;100681.12;1645338;85;26500;-75
2021/04/16 02:22:16;;;;;;;11.55;6.97;;;;;;;5.34;90.35;100680.44;1654684;85;27554;-74
2021/04/16 02:24:44;;;;;;;11.30;7.42;;;;;;;5.36;90.47;100681.61;1645486;85;26165;-73
2021/04/16 02:27:13;;;;;;;14.45;6.72;;;;;;;5.35;90.38;100675.45;1662823;84;25734;-73
2021/04/16 02:29:41;;;;;;;11.45;6.40;;;;;;;5.37;90.46;100677.94;1621569;85;25847;-74
2021/04/16 02:32:10;;;;;;;8.20;6.35;;;;;;;5.37;90.42;100679.27;1624424;85;26096;-75
2021/04/16 02:34:38;;;;;;;10.48;6.60;;;;;;;5.34;90.47;100680.44;1655618;85;28067;-74
2021/04/16 02:37:10;;;;;;;7.33;5.85;;;;;;;5.33;90.47;100681.41;1668668;85;25795;-74
2021/04/16 02:39:39;;;;;;;12.07;7.05;;;;;;;5.32;90.48;100681.05;1661083;85;25773;-74
2021/04/16 02:42:08;;;;;;;14.03;7.25;;;;;;;5.29;90.49;100679.20;1673875;84;25813;-74
2021/04/16 02:44:36;;;;;;;7.05;6.22;;;;;;;5.28;90.58;100674.37;1666852;83;26000;-75
2021/04/16 02:47:06;;;;;;;9.45;6.20;;;;;;;5.28;90.54;100674.89;1691476;84;27547;-74
2021/04/16 02:49:34;;;;;;;9.55;5.80;;;;;;;5.26;90.61;100669.70;1631793;84;25802;-74
2021/04/16 02:52:02;;;;;;;9.48;6.00;;;;;;;5.25;90.52;100672.52;1662288;84;25793;-74
2021/04/16 02:54:30;;;;;;;12.50;6.45;;;;;;;5.26;90.50;100677.67;1666671;84;26656;-74
2021/04/16 02:56:57;;;;;;;9.65;5.95;;;;;;;5.26;90.54;100676.34;1690863;84;25408;-74
2021/04/16 02:59:25;;;;;;;14.87;6.35;;;;;;;5.26;90.49;100677.67;1622221;84;28408;-74
2021/04/16 03:01:52;;;;;;;10.72;6.12;;;;;;;5.26;90.49;100678.19;1665732;84;25969;-74
2021/04/16 03:04:20;;;;;;;11.90;6.35;;;;;;;5.25;90.48;100674.70;1666484;84;25977;-75
2021/04/16 03:06:47;;;;;;;8.95;6.08;;;;;;;5.24;90.55;100677.48;1691008;84;25832;-75
2021/04/16 03:09:15;;;;;;;11.78;5.47;;;;;;;5.23;90.66;100675.83;1622236;84;25766;-74
2021/04/16 03:11:42;;;;;;;12.15;6.12;;;;;;;5.22;90.57;100678.13;1665327;84;27552;-74
2021/04/16 03:14:10;;;;;;;10.90;6.28;;;;;;;5.20;90.65;100680.09;1690496;84;26104;-74
2021/04/16 03:16:38;;;;;;;7.42;5.70;;;;;;;5.21;90.58;100680.45;1666734;84;25758;-74
2021/04/16 03:19:09;;;;;;;7.20;4.78;;;;;;;5.22;90.57;100673.66;1622169;84;25919;-75
2021/04/16 03:21:36;;;;;;;8.65;6.50;;;;;;;5.23;90.52;100663.39;1690452;84;26426;-74
2021/04/16 03:24:04;;;;;;;10.60;6.15;;;;;;;5.23;90.52;100663.87;1662530;84;27550;-74
2021/04/16 03:26:32;;;;;;;10.85;5.85;;;;;;;5.24;90.57;100670.35;1690526;84;26197;-74
2021/04/16 03:29:01;;;;;;;9.23;5.90;;;;;;;5.25;90.43;100672.52;1619404;84;25729;-74
2021/04/16 03:31:30;;;;;;;6.45;5.35;;;;;;;5.23;90.40;100668.70;1662362;84;25833;-74
2021/04/16 03:33:59;;;;;;;8.50;5.40;;;;;;;5.22;90.49;100668.83;1666906;84;25823;-74
2021/04/16 03:36:28;;;;;;;9.08;5.53;;;;;;;5.22;90.39;100669.67;1690823;84;27612;-74
2021/04/16 03:38:55;;;;;;;6.60;5.22;;;;;;;5.22;90.55;100664.84;1644197;83;26531;-75
2021/04/16 03:41:22;;;;;;;10.25;5.62;;;;;;;5.18;90.58;100663.00;1675241;83;25798;-74
2021/04/16 03:43:50;;;;;;;10.65;6.10;;;;;;;5.20;90.54;100660.18;1672723;83;26421;-74
2021/04/16 03:46:17;;;;;;;8.53;5.30;;;;;;;5.21;90.52;100666.69;1701215;83;25746;-74
2021/04/16 03:48:45;;;;;;;6.35;5.12;;;;;;;5.22;90.50;100665.69;1662633;83;27615;-74
2021/04/16 03:51:12;;;;;;;7.60;5.15;;;;;;;5.20;90.56;100659.69;1668236;85;26483;-73
2021/04/16 03:53:41;;;;;;;10.15;6.22;;;;;;;5.21;90.46;100668.50;1711229;83;25821;-74
2021/04/16 03:56:11;;;;;;;5.58;4.92;;;;;;;5.21;90.55;100669.34;1678569;84;25797;-74
2021/04/16 03:58:39;;;;;;;9.80;6.25;;;;;;;5.21;90.57;100672.00;1634623;84;25818;-75
2021/04/16 04:01:08;;;;;;;7.95;5.37;;;;;;;5.21;90.53;100668.50;1663607;84;27563;-74
2021/04/16 04:03:36;;;;;;;8.90;6.50;;;;;;;5.20;90.50;100672.97;1675898;85;25886;-75
2021/04/16 04:06:05;;;;;;;7.70;5.45;;;;;;;5.21;90.47;100677.31;1671836;85;26443;-74
2021/04/16 04:08:34;;;;;;;7.75;5.50;;;;;;;5.22;90.41;100671.00;1608315;85;25781;-74
2021/04/16 04:11:03;;;;;;;8.00;5.00;;;;;;;5.21;90.46;100673.33;1627737;85;26567;-75
2021/04/16 04:13:30;;;;;;;8.23;5.55;;;;;;;5.21;90.38;100672.00;1658109;84;27362;-74
2021/04/16 04:15:58;;;;;;;9.25;5.35;;;;;;;5.21;90.38;100675.98;1668505;84;26091;-75
2021/04/16 04:18:25;;;;;;;8.63;6.15;;;;;;;5.23;90.38;100680.65;1619518;84;25735;-74
2021/04/16 04:20:52;;;;;;;9.30;5.72;;;;;;;5.26;90.34;100682.17;1660985;83;25761;-74
2021/04/16 04:23:20;;;;;;;7.40;5.03;;;;;;;5.25;90.26;100683.14;1654462;84;25972;-75
2021/04/16 04:25:47;;;;;;;9.85;5.53;;;;;;;5.24;90.24;100680.98;1655442;84;27698;-74
2021/04/16 04:28:15;;;;;;;12.82;6.30;;;;;;;5.24;90.15;100684.95;1630288;84;25944;-75
2021/04/16 04:30:42;;;;;;;11.18;6.37;;;;;;;5.25;90.13;100689.30;1658345;84;25805;-74
2021/04/16 04:33:09;;;;;;;14.68;6.45;;;;;;;5.24;90.10;100688.09;1656192;84;25917;-75
2021/04/16 04:35:37;;;;;;;8.73;5.58;;;;;;;5.24;90.16;100680.98;1681020;84;25971;-74
2021/04/16 04:38:05;;;;;;;7.25;5.70;;;;;;;5.25;90.07;100681.33;1649798;84;27618;-74
2021/04/16 04:40:34;;;;;;;8.08;5.85;;;;;;;5.26;90.06;100675.02;1651180;84;26530;-75
2021/04/16 04:43:02;;;;;;;11.25;5.75;;;;;;;5.24;90.02;100679.65;1648962;84;25848;-75
2021/04/16 04:45:30;;;;;;;9.08;5.78;;;;;;;5.25;90.06;100678.67;1659718;84;26258;-74
2021/04/16 04:47:58;;;;;;;11.00;6.25;;;;;;;5.26;90.03;100682.98;1598131;84;26109;-74
2021/04/16 04:50:26;;;;;;;9.75;6.40;;;;;;;5.26;89.98;100680.84;1655216;84;28717;-74
2021/04/16 04:52:55;;;;;;;8.85;5.75;;;;;;;5.26;89.99;100685.64;1655005;84;25815;-75
2021/04/16 04:55:30;;;;;;;;;;;;;;;5.28;89.96;100681.53;1684351;84;25888;-74
2021/04/16 04:57:58;;;;;;;10.80;6.40;;;;;;;5.28;89.93;100677.55;1650889;84;26713;-75
2021/04/16 05:00:27;;;;;;;10.05;5.92;;;;;;;5.27;89.98;100674.05;1673024;84;26616;-74
2021/04/16 05:02:55;;;;;;;7.75;5.72;;;;;;;5.29;89.95;100679.20;1642372;84;27119;-74
2021/04/16 05:05:23;;;;;;;10.35;6.05;;;;;;;5.30;89.82;100679.55;1627640;84;25833;-74
2021/04/16 05:07:51;;;;;;;7.53;5.22;;;;;;;5.30;89.80;100680.37;1626471;84;26505;-74
2021/04/16 05:10:19;;;;;;;6.95;5.65;;;;;;;5.30;89.77;100676.38;1632227;84;26395;-74
2021/04/16 05:12:48;;;;;;;7.90;5.00;;;;;;;5.31;89.84;100674.57;1683615;84;25775;-74
2021/04/16 05:15:18;;;;;;;9.90;5.50;;;;;;;5.31;89.69;100674.57;1666598;84;27536;-74
2021/04/16 05:17:45;;;;;;;9.53;5.20;;;;;;;5.31;89.67;100679.88;1652974;84;26057;-76
2021/04/16 05:20:14;;;;;;;7.47;4.80;;;;;;;5.31;89.69;100672.75;1700683;83;25816;-74
2021/04/16 05:22:42;;;;;;;7.78;5.20;;;;;;;5.32;89.68;100675.73;1673899;83;26515;-74
2021/04/16 05:25:11;;;;;;;10.38;5.40;;;;;;;5.32;89.54;100674.41;1634525;84;26094;-73
2021/04/16 05:27:38;;;;;;;11.43;5.12;;;;;;;5.33;89.44;100668.13;1656230;84;28576;-74
2021/04/16 05:30:08;;;;;;;7.83;5.12;;;;;;;5.34;89.55;100675.61;1663240;83;25853;-74
2021/04/16 05:32:35;;;;;;;11.00;5.40;;;;;;;5.34;89.48;100670.30;1659064;84;26060;-74
2021/04/16 05:35:03;;;;;;;7.90;4.95;;;;;;;5.32;89.52;100671.75;1681780;84;25713;-74
2021/04/16 05:37:31;;;;;;;8.70;4.80;;;;;;;5.32;89.42;100671.75;1655923;84;25866;-74
2021/04/16 05:39:58;;;;;;;9.15;5.40;;;;;;;5.33;89.47;100669.45;1651854;85;28297;-74
2021/04/16 05:42:25;;;;;;;7.53;5.28;;;;;;;5.36;89.36;100668.32;1668556;83;25795;-73
2021/04/16 05:44:54;;;;;;;11.20;5.40;;;;;;;5.35;89.38;100672.79;1670944;85;25775;-74
2021/04/16 05:47:21;;;;;;;10.45;5.85;;;;;;;5.36;89.37;100670.49;1643935;85;26398;-75
2021/04/16 05:49:49;;;;;;;9.70;4.83;;;;;;;5.38;89.24;100671.66;1647656;85;26442;-74
2021/04/16 05:52:17;;;;;;;8.38;4.25;;;;;;;5.40;89.33;100667.87;1681622;83;28443;-73
2021/04/16 05:54:44;;;;;;;10.18;5.10;;;;;;;5.40;89.05;100671.02;1644205;84;25907;-74
2021/04/16 05:57:12;;;;;;;9.25;5.65;;;;;;;5.39;89.06;100666.67;1663535;83;25873;-73
2021/04/16 05:59:39;;;;;;;7.92;4.15;;;;;;;5.39;89.32;100667.52;1634983;83;25893;-73
2021/04/16 06:02:33;;;;;;;7.05;4.67;;;;;;;5.40;89.16;100662.56;1676191;82;25396;-74
2021/04/16 06:05:14;;;;;;;7.62;5.47;;;;;;;5.43;89.26;100665.41;1664879;84;27544;-73
2021/04/16 06:07:43;;;;;;;7.87;4.92;;;;;;;5.45;89.59;100662.91;1688725;83;25978;-74
2021/04/16 06:10:13;;;;;;;10.95;4.58;;;;;;;5.48;89.36;100663.95;1657094;84;25961;-74
2021/04/16 06:12:41;;;;;;;7.83;4.80;;;;;;;5.51;89.31;100661.49;1661002;84;26576;-75
2021/04/16 06:15:17;;;;;;;10.68;5.58;;;;;;;5.54;89.35;100660.36;1650093;84;25853;-74
2021/04/16 06:17:45;;;;;;;12.35;5.90;;;;;;;5.53;89.18;100665.31;1659579;84;26732;-74
2021/04/16 06:20:18;;;;;;;7.58;4.95;;;;;;;5.51;89.19;100665.47;1668415;84;26301;-75
2021/04/16 06:22:47;;;;;;;9.83;5.25;;;;;;;5.55;89.48;100669.98;1640551;84;25802;-74
2021/04/16 06:25:23;;;;;;;10.13;5.35;;;;;;;5.56;89.34;100661.84;1684910;83;25885;-75
2021/04/16 06:27:51;;;;;;;7.95;4.97;;;;;;;5.58;89.57;100665.70;1656328;83;25884;-74
2021/04/16 06:30:20;;;;;;;7.72;5.47;;;;;;;5.58;89.41;100661.72;1665469;83;27346;-74
2021/04/16 06:33:09;;;;;;;9.85;4.53;;;;;;;5.57;89.46;100658.70;1635548;83;25809;-74
2021/04/16 06:35:39;;;;;;;10.70;5.67;;;;;;;5.58;89.46;100659.06;1683034;83;25744;-74
2021/04/16 06:38:08;;;;;;;7.67;4.62;;;;;;;5.60;89.77;100657.08;1658081;83;25805;-74
2021/04/16 06:40:36;;;;;;;11.15;5.33;;;;;;;5.61;89.61;100654.75;1666390;83;25400;-74
2021/04/16 06:43:04;;;;;;;9.13;5.00;;;;;;;5.62;89.87;100659.09;1686154;83;28634;-74
2021/04/16 06:45:33;;;;;;;8.95;4.53;;;;;;;5.65;89.68;100662.27;1692361;83;25953;-75
2021/04/16 06:48:07;;;;;;;8.13;4.87;;;;;;;5.65;89.60;100657.44;1657150;83;25833;-74
2021/04/16 06:50:41;;;;;;;10.63;5.90;;;;;;;5.64;89.63;100661.94;1651267;83;25862;-74
2021/04/16 06:53:40;;;;;;;10.55;6.20;;;;;;;5.66;89.55;100660.45;1690368;83;26413;-74
2021/04/16 06:56:23;;;;;;;6.58;4.50;;;;;;;5.69;89.82;100657.50;1690935;83;29073;-74
2021/04/16 06:59:02;;;;;;;8.18;4.97;;;;;;;5.73;89.84;100662.32;1660576;84;25933;-74
2021/04/16 07:01:47;;;;;;;10.28;5.10;;;;;;;5.72;89.55;100666.47;1654050;84;25869;-75
2021/04/16 07:04:26;;;;;;;8.23;4.70;;;;;;;5.71;89.74;100664.81;1665715;83;25871;-74
2021/04/16 07:07:01;;;;;;;11.78;5.30;;;;;;;5.71;89.99;100665.62;1694258;83;25724;-74
2021/04/16 07:09:39;;;;;;;10.35;5.30;;;;;;;5.71;89.99;100670.95;1690703;83;28329;-74
2021/04/16 07:12:20;;;;;;;7.87;4.10;;;;;;;5.71;90.02;100665.62;1671254;83;25908;-74
2021/04/16 07:15:08;;;;;;;8.23;4.95;;;;;;;5.69;89.84;100666.80;1691659;83;25666;-73
2021/04/16 07:17:40;;;;;;;10.55;5.08;;;;;;;5.67;90.09;100667.41;1686603;83;26476;-74
2021/04/16 07:20:11;;;;;;;7.37;5.05;;;;;;;5.65;90.33;100668.06;1699174;83;25805;-74
2021/04/16 07:22:50;;;;;;;;;;;;;;;5.64;90.13;100664.59;1653381;85;27775;-74
2021/04/16 07:25:41;;;;;;;8.50;4.75;;;;;;;5.65;90.35;100669.39;1681211;83;25888;-74
2021/04/16 07:28:14;;;;;;;7.67;4.90;;;;;;;5.65;90.50;100665.41;1691956;82;25948;-74
2021/04/16 07:30:49;;;;;;;7.60;4.55;;;;;;;5.66;90.54;100669.75;1626963;85;25796;-74
2021/04/16 07:36:33;;;;;;;7.78;5.00;;;;;;;5.73;90.72;100673.47;1764631;79;25693;-74
2021/04/16 07:39:18;;;;;;;5.62;4.53;;;;;;;5.67;90.44;100670.07;1747761;80;26388;-77
2021/04/16 07:41:50;;;;;;;11.83;5.15;;;;;;;5.68;90.53;100667.77;1719378;81;27496;-78
2021/04/16 07:44:27;;;;;;;10.30;5.87;;;;;;;5.70;90.50;100668.45;1722674;81;25890;-78
2021/04/16 07:46:58;;;;;;;10.38;5.83;;;;;;;5.71;90.20;100667.48;1715515;81;26113;-77
2021/04/16 07:49:36;;;;;;;7.17;5.25;;;;;;;5.72;90.42;100667.31;1756001;80;25805;-77
2021/04/16 07:52:27;;;;;;;7.40;5.33;;;;;;;5.74;90.60;100669.81;1715781;80;25814;-76
2021/04/16 07:55:05;;;;;;;8.00;5.90;;;;;;;5.76;90.54;100673.98;1746912;80;28454;-74
2021/04/16 07:57:37;;;;;;;7.65;6.30;;;;;;;5.77;90.51;100673.50;1693193;81;25799;-74
2021/04/16 08:00:18;;;;;;;8.28;5.15;;;;;;;5.77;90.52;100665.04;1718162;81;26139;-73
2021/04/16 08:02:54;;;;;;;7.03;5.80;;;;;;;5.77;90.23;100674.34;1712736;81;26440;-76
2021/04/16 08:05:30;;;;;;;9.68;4.40;;;;;;;5.76;90.10;100664.69;1739706;80;26072;-73
2021/04/16 08:08:21;;;;;;;8.58;5.33;;;;;;;5.75;89.99;100668.31;1715602;81;27648;-73
2021/04/16 08:10:56;;;;;;;9.33;5.08;;;;;;;5.74;89.85;100667.15;1741468;81;25801;-73
2021/04/16 08:13:28;;;;;;;6.85;5.20;;;;;;;5.75;89.90;100662.19;1722072;81;25837;-73
2021/04/16 08:16:16;;;;;;;7.50;4.87;;;;;;;5.77;89.84;100666.37;1744726;80;26239;-73
2021/04/16 08:19:05;;;;;;;10.15;5.70;;;;;;;5.78;89.79;100680.47;1701610;80;26115;-73
2021/04/16 08:21:38;;;;;;;6.80;5.03;;;;;;;5.75;89.71;100679.47;1710678;81;27540;-75
2021/04/16 08:24:30;;;;;;;9.78;5.12;;;;;;;5.76;89.88;100677.13;1717123;81;25746;-75
2021/04/16 08:27:21;;;;;;;8.58;5.60;;;;;;;5.74;89.76;100677.30;1740621;81;26539;-77
2021/04/16 08:30:00;;;;;;;11.95;5.78;;;;;;;5.72;89.60;100681.93;1682277;81;25791;-75
2021/04/16 08:32:47;;;;;;;7.67;5.50;;;;;;;5.75;89.77;100678.14;1718129;81;25849;-75
2021/04/16 08:35:19;;;;;;;9.63;5.33;;;;;;;5.71;89.64;100671.46;1743064;80;28429;-75
2021/04/16 08:37:55;;;;;;;10.40;6.08;;;;;;;5.68;89.83;100678.40;1744080;81;26449;-75
2021/04/16 08:40:28;;;;;;;13.48;7.20;;;;;;;5.67;89.89;100678.05;1724614;81;25852;-75
2021/04/16 08:42:58;;;;;;;10.80;6.75;;;;;;;5.69;90.00;100680.89;1734131;80;26324;-75
2021/04/16 08:45:32;;;;;;;14.35;7.08;;;;;;;5.72;89.97;100682.41;1728773;81;25835;-74
2021/04/16 08:48:20;;;;;;;10.08;6.25;;;;;;;5.71;90.04;100680.25;1748014;80;27389;-74
2021/04/16 08:50:54;;;;;;;11.30;7.30;;;;;;;5.72;89.86;100689.06;1727127;81;26462;-75
2021/04/16 08:53:22;;;;;;;7.55;5.42;;;;;;;5.69;89.85;100686.73;1732373;81;25773;-75
2021/04/16 08:55:54;;;;;;;12.63;6.78;;;;;;;5.67;89.87;100682.88;1727245;81;25780;-74
2021/04/16 08:58:34;;;;;;;11.45;6.65;;;;;;;5.67;89.90;100676.72;1739315;81;26106;-75
2021/04/16 09:01:18;;;;;;;9.30;7.15;;;;;;;5.69;90.28;100678.23;1696022;81;27605;-75
2021/04/16 09:03:58;;;;;;;8.75;6.85;;;;;;;5.70;90.05;100669.30;1707576;81;25821;-75
2021/04/16 09:06:34;;;;;;;9.68;5.83;;;;;;;5.74;90.17;100674.64;1701083;81;25951;-75
2021/04/16 09:09:06;;;;;;;7.80;5.75;;;;;;;5.79;90.25;100670.19;1741803;81;25940;-74
2021/04/16 09:11:47;;;;;;;9.88;7.55;;;;;;;5.79;89.94;100674.18;1719624;81;26569;-75
2021/04/16 09:14:29;;;;;;;13.15;7.47;;;;;;;5.77;89.79;100678.33;1708496;81;26838;-75
2021/04/16 09:17:03;;;;;;;8.95;6.58;;;;;;;5.76;89.92;100674.47;1720089;81;25734;-75
2021/04/16 09:19:35;;;;;;;9.55;5.90;;;;;;;5.77;90.04;100683.64;1748559;80;25646;-75
2021/04/16 09:22:10;;;;;;;9.83;6.05;;;;;;;5.80;90.10;100681.98;1709239;81;25852;-75
2021/04/16 09:24:52;;;;;;;11.03;7.60;;;;;;;5.79;90.03;100676.34;1745262;81;25759;-75
2021/04/16 09:27:38;;;;;;;8.53;7.25;;;;;;;5.80;90.00;100679.33;1712769;81;27349;-75
2021/04/16 09:30:13;;;;;;;10.08;6.92;;;;;;;5.81;89.89;100679.69;1746413;80;25881;-75
2021/04/16 09:32:54;;;;;;;8.25;7.45;;;;;;;5.81;89.75;100674.37;1752459;80;25912;-75
2021/04/16 09:35:39;;;;;;;10.40;7.05;;;;;;;5.82;89.87;100680.50;1692008;83;25766;-75
2021/04/16 09:38:27;;;;;;;10.95;6.17;;;;;;;5.87;90.11;100679.58;1648830;84;26439;-75
2021/04/16 09:41:24;;;;;;;10.32;7.22;;;;;;;5.93;90.15;100679.80;1658165;83;28545;-75
2021/04/16 09:43:58;;;;;;;9.30;7.60;;;;;;;5.97;90.12;100675.00;1681035;83;26461;-75
2021/04/16 09:46:38;;;;;;;10.80;6.50;;;;;;;5.97;89.76;100675.00;1660615;84;26470;-75
2021/04/16 09:49:31;;;;;;;11.28;6.35;;;;;;;5.99;90.01;100669.03;1695566;83;25808;-75
2021/04/16 09:52:39;;;;;;;10.53;7.15;;;;;;;6.05;89.95;100669.76;1690479;83;26393;-74
2021/04/16 09:55:48;;;;;;;8.78;7.05;;;;;;;6.13;90.17;100661.83;1643105;83;27717;-75
2021/04/16 09:58:39;;;;;;;10.43;7.33;;;;;;;6.18;89.81;100664.83;1664929;85;26709;-74
2021/04/16 10:01:16;;;;;;;12.18;7.78;;;;;;;6.20;89.72;100662.36;1656837;83;25853;-75
2021/04/16 10:04:00;;;;;;;11.60;7.70;;;;;;;6.25;89.63;100660.56;1699573;83;25775;-75
2021/04/16 10:06:39;;;;;;;10.15;7.00;;;;;;;6.28;88.96;100655.42;1659549;83;25868;-75
2021/04/16 10:09:18;;;;;;;12.20;6.97;;;;;;;6.30;89.19;100652.11;1690732;83;27535;-75
2021/04/16 10:11:58;;;;;;;10.18;6.22;;;;;;;6.36;89.03;100654.98;1665026;83;25753;-75
2021/04/16 10:14:34;;;;;;;14.30;7.15;;;;;;;6.40;89.23;100649.67;1684614;83;25822;-75
2021/04/16 10:17:18;;;;;;;11.18;6.50;;;;;;;6.44;89.13;100654.17;1667467;84;25984;-75
2021/04/16 10:20:14;;;;;;;6.67;5.42;;;;;;;6.47;88.97;100649.38;1657645;83;26454;-75
2021/04/16 10:22:41;;;;;;;10.93;6.10;;;;;;;6.50;88.60;100643.72;1671815;83;27508;-75
2021/04/16 11:33:07;;;;;;;8.85;6.87;;;;;;;6.74;87.75;100650.48;1682477;84;26251;-76
2021/04/16 12:39:21;;;;;;;9.53;5.20;;;;;;;6.83;88.47;100646.03;1779220;78;26370;-74
2021/04/16 12:41:58;;;;;;;10.43;6.42;;;;;;;6.81;88.73;100650.19;1764792;80;25706;-74
2021/04/16 12:44:39;;;;;;;8.63;6.00;;;;;;;6.84;88.82;100649.84;1790116;79;25785;-73
2021/04/16 12:47:14;;;;;;;9.30;5.55;;;;;;;6.88;88.88;100647.72;1777140;79;27603;-74
2021/04/16 12:49:42;;;;;;;7.67;5.60;;;;;;;6.90;88.65;100647.89;1733727;81;26065;-74
2021/04/16 12:52:10;;;;;;;9.48;5.47;;;;;;;6.90;88.60;100649.72;1705951;81;25740;-77
2021/04/16 12:54:40;;;;;;;7.45;5.50;;;;;;;6.91;88.66;100651.37;1745490;81;26576;-74
2021/04/16 12:57:12;;;;;;;10.38;5.45;;;;;;;6.90;88.54;100651.89;1689973;81;25858;-74
2021/04/16 12:59:40;;;;;;;5.90;5.28;;;;;;;6.89;88.47;100645.38;1708699;81;27993;-74
2021/04/16 13:02:11;;;;;;;7.83;5.62;;;;;;;6.88;88.69;100648.56;1724598;81;26113;-73
2021/04/16 13:04:42;;;;;;;9.70;5.60;;;;;;;6.90;88.73;100651.05;1746470;81;26394;-73
2021/04/16 13:07:09;;;;;;;7.20;5.12;;;;;;;6.91;88.89;100647.37;1721854;81;25814;-73
2021/04/16 13:09:38;;;;;;;9.58;6.40;;;;;;;6.88;88.91;100648.56;1711665;81;26556;-73
2021/04/16 13:12:08;;;;;;;10.08;5.30;;;;;;;6.87;88.83;100647.36;1717194;81;26585;-73
2021/04/16 13:14:35;;;;;;;11.50;5.92;;;;;;;6.88;89.10;100647.72;1746198;81;26358;-74
2021/04/16 13:17:03;;;;;;;7.83;6.12;;;;;;;6.88;89.02;100647.23;1705303;81;25704;-74
2021/04/16 13:19:35;;;;;;;8.85;6.10;;;;;;;6.90;89.17;100654.55;1725668;81;25889;-74
2021/04/16 13:22:12;;;;;;;11.20;6.35;;;;;;;6.91;89.25;100648.70;1718549;81;25962;-74
2021/04/16 13:24:41;;;;;;;9.35;6.37;;;;;;;6.89;89.24;100654.20;1745243;81;28435;-74
2021/04/16 13:27:16;;;;;;;11.35;6.40;;;;;;;6.89;89.44;100652.88;1715972;81;25673;-73
2021/04/16 13:29:44;;;;;;;10.32;6.80;;;;;;;6.89;89.70;100648.88;1728892;82;25749;-74
2021/04/16 13:32:21;;;;;;;8.98;6.83;;;;;;;6.89;89.74;100646.22;1685639;83;25704;-74
2021/04/16 13:34:53;;;;;;;9.73;6.40;;;;;;;6.94;89.81;100645.73;1704197;83;25766;-76
2021/04/16 13:37:22;;;;;;;9.90;6.45;;;;;;;6.96;89.72;100647.24;1665872;83;27540;-76
2021/04/16 13:39:49;;;;;;;7.25;6.17;;;;;;;6.97;89.75;100656.07;1753323;80;26065;-75
2021/04/16 13:42:17;;;;;;;10.30;6.30;;;;;;;6.96;89.71;100655.72;1740986;80;26461;-75
2021/04/16 13:44:45;;;;;;;12.35;6.40;;;;;;;6.93;89.70;100659.53;1734803;81;25763;-75
2021/04/16 13:47:19;;;;;;;10.00;6.25;;;;;;;6.89;89.57;100651.54;1689745;81;26107;-76
2021/04/16 13:49:49;;;;;;;8.03;5.65;;;;;;;6.85;89.72;100659.52;1748027;80;28589;-75
2021/04/16 13:52:17;;;;;;;10.40;5.60;;;;;;;6.80;89.85;100653.83;1749647;80;25959;-76
2021/04/16 13:54:47;;;;;;;6.83;5.30;;;;;;;6.79;90.00;100663.32;1765615;80;25789;-76
2021/04/16 13:57:17;;;;;;;8.10;5.30;;;;;;;6.76;89.89;100664.95;1698103;80;25778;-75
2021/04/16 13:59:46;;;;;;;6.83;4.70;;;;;;;6.74;89.59;100656.30;1748083;80;26053;-75
2021/04/16 14:02:27;;;;;;;5.50;4.03;;;;;;;6.68;89.33;100663.60;1745467;80;27334;-75
2021/04/16 14:04:54;;;;;;;5.67;4.33;;;;;;;6.61;89.32;100673.21;1753469;80;26205;-74
2021/04/16 14:07:22;;;;;;;7.85;4.00;;;;;;;6.53;89.00;100671.84;1705411;80;26061;-74
2021/04/16 14:09:50;;;;;;;6.30;3.40;;;;;;;6.45;88.98;100675.80;1723094;80;25856;-74
2021/04/16 14:12:17;;;;;;;6.17;3.60;;;;;;;6.39;88.30;100677.77;1718709;80;26114;-74